Detall de PIREP

Printer-friendly versionPDF version

[2012/09/29 15:02:00]
Flight IATA:CT1001
Pilot Number:026
Company ICAO:CAT
Aircraft Type:F50/A
PAX:50
Aircraft Registration:PAOB
Departing Airport: LICD
Destination Airport: LIEA
Alternate Airport:LIEO
Online: VATSIM
Route:VERAK UM740 MEGAN UM732 SODIO
Flight Level:F240
No Slew and time accel
No pause
Crash detect
Detect pilot in Cockpit between each 30 and 45 minutes
15:02 Zero fuel Weight: 37603 Lbs, Fuel Weight: 4122 Lbs
15:02 VATSIM:LICD 291350Z 20007KT CAVOK 29/24 Q1014
15:02 VATSIM:LIEA 291420Z 23013KT 9999 BKN025 25/19 Q1013
15:02 CATALONIAN AIRLINES / MEDITERRANEAN ODYSSEY LEG5
15:22 Parking Brakes off
15:55 Take-off
15:55 Take off Weight: 41415 Lbs
15:55 Wind: 179º @ 007 Knots Heading: 257º
15:55 POS N35º 29´ 45´´ E012º 36´ 31´´
15:55 Flaps:3 at 110 Knots
15:55 Gear Up: 111 Knots
15:55 Flaps:2 at 119 Knots
15:56 Flaps:1 at 125 Knots
15:56 Flaps:0 at 132 Knots
16:10 Wind:104º@004 Knots Heading: 340º Ground Speed: 231 Knots Altitude 13868 ft
16:20 TOC
16:20 Fuel Weight: 2882 Lb
16:25 Wind:084º@005 Knots Heading: 356º Ground Speed: 252 Knots Altitude 23986 ft
16:40 Wind:044º@008 Knots Heading: 310º Ground Speed: 258 Knots Altitude 23969 ft
16:55 Wind:287º@052 Knots Heading: 303º Ground Speed: 207 Knots Altitude 23923 ft
17:10 Wind:277º@071 Knots Heading: 307º Ground Speed: 193 Knots Altitude 23920 ft
17:24 TOD
17:24 Fuel Weight: 1469 Lb
17:25 Wind:334º@036 Knots Heading: 324º Ground Speed: 232 Knots Altitude 22811 ft
17:40 Wind:230º@006 Knots Heading: 037º Ground Speed: 157 Knots Altitude 2860 ft
17:44 Gear Down: 131 Knots
17:44 Gear Up: 127 Knots
17:45 Gear Down: 128 Knots
17:46 Flaps:1 at 135 Knots
17:48 Flaps:2 at 122 Knots
17:48 Flaps:3 at 105 Knots
17:48 Flaps:4 at 106 Knots
17:49 TouchDown:Rate -137 ft/min Speed: 90 Knots
17:49 VATSIM:LIEA 291720Z 23004KT CAVOK 21/17 Q1014
17:49 Land
17:49 Wind:230º@004 Knots
17:49 Heading: 203º
17:49 Flight Duration: 01:54
17:49 Landing Weight: 38782 Lbs
17:49 POS N40º 37´ 48´´ E008º 17´ 23´´
17:52 Parking brakes on
17:52 Block to Block Duration: 02:30
17:52 Final Fuel: 1146 Lbls
17:52 Spent Fuel: 2976 Lbls
17:52 Flight Length: 415 NM
17:52 TOD Land Length: 80 NM

Exportar CSV

Powered by Drupal - Modified by Danger4k